sensor_id;sensor_type;location;lat;lon;timestamp;P1;durP1;ratioP1;P2;durP2;ratioP2
51048;SDS011;37084;55.228;36.450;2022-09-11T00:01:32;15.82;;;8.55;;
51048;SDS011;37084;55.228;36.450;2022-09-11T00:04:33;16.50;;;7.97;;
51048;SDS011;37084;55.228;36.450;2022-09-11T00:07:35;17.92;;;8.98;;
51048;SDS011;37084;55.228;36.450;2022-09-11T00:10:37;15.48;;;7.70;;
51048;SDS011;37084;55.228;36.450;2022-09-11T00:13:46;16.95;;;8.18;;
51048;SDS011;37084;55.228;36.450;2022-09-11T00:16:50;17.55;;;8.23;;
51048;SDS011;37084;55.228;36.450;2022-09-11T00:19:51;14.27;;;8.18;;
51048;SDS011;37084;55.228;36.450;2022-09-11T00:22:52;14.02;;;8.23;;
51048;SDS011;37084;55.228;36.450;2022-09-11T00:25:53;15.18;;;8.35;;
51048;SDS011;37084;55.228;36.450;2022-09-11T00:28:55;16.65;;;7.95;;
51048;SDS011;37084;55.228;36.450;2022-09-11T00:31:57;14.43;;;7.85;;
51048;SDS011;37084;55.228;36.450;2022-09-11T00:34:58;15.30;;;8.50;;
51048;SDS011;37084;55.228;36.450;2022-09-11T00:37:59;14.82;;;8.15;;
51048;SDS011;37084;55.228;36.450;2022-09-11T00:41:01;12.43;;;7.45;;
51048;SDS011;37084;55.228;36.450;2022-09-11T00:47:12;14.90;;;8.32;;
51048;SDS011;37084;55.228;36.450;2022-09-11T00:50:17;13.30;;;8.25;;
51048;SDS011;37084;55.228;36.450;2022-09-11T00:53:20;17.67;;;9.02;;
51048;SDS011;37084;55.228;36.450;2022-09-11T00:56:24;13.82;;;7.75;;
51048;SDS011;37084;55.228;36.450;2022-09-11T00:59:28;13.93;;;8.75;;
51048;SDS011;37084;55.228;36.450;2022-09-11T01:02:30;14.48;;;8.90;;
51048;SDS011;37084;55.228;36.450;2022-09-11T01:05:34;14.48;;;7.53;;
51048;SDS011;37084;55.228;36.450;2022-09-11T01:08:36;15.95;;;8.82;;
51048;SDS011;37084;55.228;36.450;2022-09-11T01:11:42;14.43;;;7.75;;
51048;SDS011;37084;55.228;36.450;2022-09-11T01:15:06;13.88;;;8.65;;
51048;SDS011;37084;55.228;36.450;2022-09-11T01:18:16;17.45;;;8.60;;
51048;SDS011;37084;55.228;36.450;2022-09-11T01:38:57;15.52;;;7.80;;
51048;SDS011;37084;55.228;36.450;2022-09-11T01:42:06;16.52;;;8.93;;
51048;SDS011;37084;55.228;36.450;2022-09-11T01:45:15;16.27;;;9.23;;
51048;SDS011;37084;55.228;36.450;2022-09-11T01:48:17;16.00;;;9.80;;
51048;SDS011;37084;55.228;36.450;2022-09-11T01:51:24;16.50;;;10.73;;
51048;SDS011;37084;55.228;36.450;2022-09-11T01:54:31;15.80;;;9.55;;
51048;SDS011;37084;55.228;36.450;2022-09-11T01:57:35;17.00;;;9.60;;
51048;SDS011;37084;55.228;36.450;2022-09-11T02:00:42;16.13;;;9.27;;
51048;SDS011;37084;55.228;36.450;2022-09-11T02:03:50;16.02;;;9.88;;
51048;SDS011;37084;55.228;36.450;2022-09-11T02:07:18;17.40;;;10.27;;
51048;SDS011;37084;55.228;36.450;2022-09-11T02:10:39;16.65;;;9.25;;
51048;SDS011;37084;55.228;36.450;2022-09-11T02:17:04;23.70;;;10.23;;
51048;SDS011;37084;55.228;36.450;2022-09-11T02:23:12;15.75;;;8.93;;
51048;SDS011;37084;55.228;36.450;2022-09-11T02:26:15;17.10;;;9.93;;
51048;SDS011;37084;55.228;36.450;2022-09-11T02:29:18;16.65;;;9.93;;
51048;SDS011;37084;55.228;36.450;2022-09-11T02:32:21;16.10;;;10.25;;
51048;SDS011;37084;55.228;36.450;2022-09-11T02:35:23;17.40;;;9.63;;
51048;SDS011;37084;55.228;36.450;2022-09-11T02:38:43;16.02;;;9.15;;
51048;SDS011;37084;55.228;36.450;2022-09-11T02:56:10;17.70;;;10.07;;
51048;SDS011;37084;55.228;36.450;2022-09-11T02:59:20;17.08;;;9.88;;
51048;SDS011;37084;55.228;36.450;2022-09-11T03:02:26;17.70;;;10.32;;
51048;SDS011;37084;55.228;36.450;2022-09-11T03:05:32;18.05;;;10.38;;
51048;SDS011;37084;55.228;36.450;2022-09-11T03:08:35;21.58;;;11.27;;
51048;SDS011;37084;55.228;36.450;2022-09-11T03:11:36;18.13;;;11.52;;
51048;SDS011;37084;55.228;36.450;2022-09-11T03:14:38;18.48;;;11.10;;
51048;SDS011;37084;55.228;36.450;2022-09-11T03:17:39;20.55;;;12.00;;
51048;SDS011;37084;55.228;36.450;2022-09-11T03:20:45;23.45;;;11.85;;
51048;SDS011;37084;55.228;36.450;2022-09-11T03:23:46;17.33;;;12.15;;
51048;SDS011;37084;55.228;36.450;2022-09-11T03:26:48;21.20;;;11.77;;
51048;SDS011;37084;55.228;36.450;2022-09-11T03:29:51;22.77;;;11.30;;
51048;SDS011;37084;55.228;36.450;2022-09-11T03:32:53;19.10;;;9.80;;
51048;SDS011;37084;55.228;36.450;2022-09-11T03:35:55;16.15;;;10.70;;
51048;SDS011;37084;55.228;36.450;2022-09-11T03:38:56;17.88;;;10.15;;
51048;SDS011;37084;55.228;36.450;2022-09-11T03:41:58;21.23;;;11.65;;
51048;SDS011;37084;55.228;36.450;2022-09-11T03:45:00;20.77;;;10.98;;
51048;SDS011;37084;55.228;36.450;2022-09-11T03:48:01;18.45;;;9.93;;
51048;SDS011;37084;55.228;36.450;2022-09-11T03:51:02;18.05;;;9.73;;
51048;SDS011;37084;55.228;36.450;2022-09-11T03:54:05;15.05;;;9.55;;
51048;SDS011;37084;55.228;36.450;2022-09-11T03:57:08;17.25;;;10.95;;
51048;SDS011;37084;55.228;36.450;2022-09-11T04:00:12;17.20;;;10.43;;
51048;SDS011;37084;55.228;36.450;2022-09-11T04:03:22;19.40;;;10.32;;
51048;SDS011;37084;55.228;36.450;2022-09-11T04:06:23;16.83;;;9.27;;
51048;SDS011;37084;55.228;36.450;2022-09-11T04:09:24;16.02;;;8.88;;
51048;SDS011;37084;55.228;36.450;2022-09-11T04:12:27;16.00;;;8.85;;
51048;SDS011;37084;55.228;36.450;2022-09-11T04:15:29;16.23;;;8.77;;
51048;SDS011;37084;55.228;36.450;2022-09-11T04:18:34;17.50;;;9.38;;
51048;SDS011;37084;55.228;36.450;2022-09-11T04:21:36;15.45;;;8.85;;
51048;SDS011;37084;55.228;36.450;2022-09-11T04:24:38;13.68;;;8.25;;
51048;SDS011;37084;55.228;36.450;2022-09-11T04:27:40;14.98;;;8.35;;
51048;SDS011;37084;55.228;36.450;2022-09-11T04:30:45;17.63;;;8.63;;
51048;SDS011;37084;55.228;36.450;2022-09-11T04:33:47;15.73;;;8.20;;
51048;SDS011;37084;55.228;36.450;2022-09-11T04:36:48;13.82;;;7.93;;
51048;SDS011;37084;55.228;36.450;2022-09-11T04:39:54;18.15;;;9.80;;
51048;SDS011;37084;55.228;36.450;2022-09-11T04:42:55;17.80;;;8.77;;
51048;SDS011;37084;55.228;36.450;2022-09-11T04:46:03;13.13;;;8.10;;
51048;SDS011;37084;55.228;36.450;2022-09-11T04:49:07;17.00;;;8.15;;
51048;SDS011;37084;55.228;36.450;2022-09-11T04:52:09;16.38;;;8.43;;
51048;SDS011;37084;55.228;36.450;2022-09-11T04:55:10;15.35;;;7.82;;
51048;SDS011;37084;55.228;36.450;2022-09-11T04:58:43;13.85;;;8.40;;
51048;SDS011;37084;55.228;36.450;2022-09-11T05:01:44;16.83;;;8.60;;
51048;SDS011;37084;55.228;36.450;2022-09-11T05:04:46;14.80;;;8.52;;
51048;SDS011;37084;55.228;36.450;2022-09-11T05:07:48;13.15;;;7.57;;
51048;SDS011;37084;55.228;36.450;2022-09-11T05:10:51;17.73;;;8.27;;
51048;SDS011;37084;55.228;36.450;2022-09-11T05:13:53;13.73;;;7.75;;
51048;SDS011;37084;55.228;36.450;2022-09-11T05:16:55;14.25;;;8.10;;
51048;SDS011;37084;55.228;36.450;2022-09-11T05:19:59;13.77;;;7.63;;
51048;SDS011;37084;55.228;36.450;2022-09-11T05:23:01;18.27;;;7.50;;
51048;SDS011;37084;55.228;36.450;2022-09-11T05:26:05;15.80;;;7.70;;
51048;SDS011;37084;55.228;36.450;2022-09-11T05:29:09;20.10;;;8.73;;
51048;SDS011;37084;55.228;36.450;2022-09-11T05:32:19;14.60;;;9.18;;
51048;SDS011;37084;55.228;36.450;2022-09-11T05:35:22;14.52;;;8.27;;
51048;SDS011;37084;55.228;36.450;2022-09-11T05:38:24;14.18;;;8.32;;
51048;SDS011;37084;55.228;36.450;2022-09-11T05:41:27;15.52;;;9.15;;
51048;SDS011;37084;55.228;36.450;2022-09-11T05:44:28;15.23;;;7.68;;
51048;SDS011;37084;55.228;36.450;2022-09-11T05:47:31;14.48;;;7.47;;
51048;SDS011;37084;55.228;36.450;2022-09-11T05:50:33;14.55;;;7.55;;
51048;SDS011;37084;55.228;36.450;2022-09-11T05:53:36;14.60;;;7.45;;
51048;SDS011;37084;55.228;36.450;2022-09-11T05:56:39;15.52;;;8.15;;
51048;SDS011;37084;55.228;36.450;2022-09-11T05:59:47;13.48;;;7.80;;
51048;SDS011;37084;55.228;36.450;2022-09-11T06:02:52;14.88;;;7.97;;
51048;SDS011;37084;55.228;36.450;2022-09-11T06:05:57;11.15;;;7.22;;
51048;SDS011;37084;55.228;36.450;2022-09-11T06:09:00;15.50;;;7.78;;
51048;SDS011;37084;55.228;36.450;2022-09-11T06:12:02;16.73;;;7.75;;
51048;SDS011;37084;55.228;36.450;2022-09-11T06:15:04;13.50;;;7.72;;
51048;SDS011;37084;55.228;36.450;2022-09-11T06:18:07;13.95;;;7.88;;
51048;SDS011;37084;55.228;36.450;2022-09-11T06:21:10;13.73;;;7.63;;
51048;SDS011;37084;55.228;36.450;2022-09-11T06:24:23;13.48;;;7.47;;
51048;SDS011;37084;55.228;36.450;2022-09-11T06:27:24;13.43;;;6.93;;
51048;SDS011;37084;55.228;36.450;2022-09-11T06:30:27;15.38;;;8.15;;
51048;SDS011;37084;55.228;36.450;2022-09-11T06:33:32;11.52;;;6.68;;
51048;SDS011;37084;55.228;36.450;2022-09-11T06:36:40;12.20;;;6.90;;
51048;SDS011;37084;55.228;36.450;2022-09-11T06:39:41;11.20;;;6.00;;
51048;SDS011;37084;55.228;36.450;2022-09-11T06:42:47;10.40;;;6.03;;
51048;SDS011;37084;55.228;36.450;2022-09-11T06:45:52;11.57;;;5.28;;
51048;SDS011;37084;55.228;36.450;2022-09-11T06:48:53;8.90;;;4.90;;
51048;SDS011;37084;55.228;36.450;2022-09-11T06:51:59;9.35;;;4.75;;
51048;SDS011;37084;55.228;36.450;2022-09-11T06:55:01;7.65;;;4.32;;
51048;SDS011;37084;55.228;36.450;2022-09-11T06:58:04;8.38;;;5.43;;
51048;SDS011;37084;55.228;36.450;2022-09-11T07:01:07;12.20;;;6.65;;
51048;SDS011;37084;55.228;36.450;2022-09-11T07:04:16;12.50;;;6.72;;
51048;SDS011;37084;55.228;36.450;2022-09-11T07:07:18;9.20;;;4.88;;
51048;SDS011;37084;55.228;36.450;2022-09-11T07:10:19;5.63;;;3.80;;
51048;SDS011;37084;55.228;36.450;2022-09-11T07:13:26;7.65;;;3.97;;
51048;SDS011;37084;55.228;36.450;2022-09-11T07:16:29;7.03;;;4.47;;
51048;SDS011;37084;55.228;36.450;2022-09-11T07:19:32;6.15;;;3.78;;
51048;SDS011;37084;55.228;36.450;2022-09-11T07:22:33;5.43;;;3.25;;
51048;SDS011;37084;55.228;36.450;2022-09-11T07:25:36;5.65;;;3.50;;
51048;SDS011;37084;55.228;36.450;2022-09-11T07:28:57;5.22;;;2.92;;
51048;SDS011;37084;55.228;36.450;2022-09-11T07:31:59;4.60;;;2.85;;
51048;SDS011;37084;55.228;36.450;2022-09-11T07:35:02;5.28;;;2.85;;
51048;SDS011;37084;55.228;36.450;2022-09-11T07:38:06;6.38;;;2.80;;
51048;SDS011;37084;55.228;36.450;2022-09-11T07:41:12;3.97;;;2.80;;
51048;SDS011;37084;55.228;36.450;2022-09-11T07:44:16;6.15;;;3.42;;
51048;SDS011;37084;55.228;36.450;2022-09-11T07:47:18;5.03;;;2.65;;
51048;SDS011;37084;55.228;36.450;2022-09-11T07:50:23;3.50;;;2.53;;
51048;SDS011;37084;55.228;36.450;2022-09-11T07:53:24;4.78;;;2.65;;
51048;SDS011;37084;55.228;36.450;2022-09-11T07:56:27;6.53;;;2.92;;
51048;SDS011;37084;55.228;36.450;2022-09-11T07:59:29;3.88;;;2.88;;
51048;SDS011;37084;55.228;36.450;2022-09-11T08:02:31;6.75;;;2.72;;
51048;SDS011;37084;55.228;36.450;2022-09-11T08:05:32;5.95;;;2.30;;
51048;SDS011;37084;55.228;36.450;2022-09-11T08:08:34;5.35;;;2.40;;
51048;SDS011;37084;55.228;36.450;2022-09-11T08:11:40;4.63;;;2.95;;
51048;SDS011;37084;55.228;36.450;2022-09-11T08:14:45;4.28;;;2.35;;
51048;SDS011;37084;55.228;36.450;2022-09-11T08:17:52;5.03;;;2.55;;
51048;SDS011;37084;55.228;36.450;2022-09-11T08:20:59;3.90;;;2.17;;
51048;SDS011;37084;55.228;36.450;2022-09-11T08:24:02;4.80;;;2.67;;
51048;SDS011;37084;55.228;36.450;2022-09-11T08:27:04;4.75;;;2.20;;
51048;SDS011;37084;55.228;36.450;2022-09-11T08:30:11;4.45;;;2.22;;
51048;SDS011;37084;55.228;36.450;2022-09-11T08:33:13;5.50;;;2.45;;
51048;SDS011;37084;55.228;36.450;2022-09-11T08:36:15;5.63;;;2.25;;
51048;SDS011;37084;55.228;36.450;2022-09-11T08:39:20;4.05;;;2.30;;
51048;SDS011;37084;55.228;36.450;2022-09-11T08:42:28;4.78;;;2.10;;
51048;SDS011;37084;55.228;36.450;2022-09-11T08:45:32;4.15;;;2.20;;
51048;SDS011;37084;55.228;36.450;2022-09-11T08:48:55;5.13;;;2.28;;
51048;SDS011;37084;55.228;36.450;2022-09-11T08:52:03;4.97;;;2.00;;
51048;SDS011;37084;55.228;36.450;2022-09-11T08:55:12;5.30;;;2.75;;
51048;SDS011;37084;55.228;36.450;2022-09-11T08:58:23;4.25;;;2.70;;
51048;SDS011;37084;55.228;36.450;2022-09-11T09:04:54;5.22;;;2.63;;
51048;SDS011;37084;55.228;36.450;2022-09-11T09:12:06;7.13;;;2.17;;
51048;SDS011;37084;55.228;36.450;2022-09-11T09:15:37;4.18;;;2.30;;
51048;SDS011;37084;55.228;36.450;2022-09-11T09:18:49;4.20;;;2.33;;
51048;SDS011;37084;55.228;36.450;2022-09-11T09:25:21;4.75;;;2.10;;
51048;SDS011;37084;55.228;36.450;2022-09-11T09:28:33;4.70;;;2.13;;
51048;SDS011;37084;55.228;36.450;2022-09-11T09:31:41;3.58;;;2.15;;
51048;SDS011;37084;55.228;36.450;2022-09-11T09:34:45;4.72;;;2.03;;
51048;SDS011;37084;55.228;36.450;2022-09-11T09:37:48;4.80;;;2.33;;
51048;SDS011;37084;55.228;36.450;2022-09-11T09:41:10;4.05;;;2.55;;
51048;SDS011;37084;55.228;36.450;2022-09-11T09:44:43;4.40;;;2.40;;
51048;SDS011;37084;55.228;36.450;2022-09-11T09:47:51;6.38;;;2.63;;
51048;SDS011;37084;55.228;36.450;2022-09-11T09:50:53;4.88;;;2.60;;
51048;SDS011;37084;55.228;36.450;2022-09-11T09:53:59;8.25;;;2.63;;
51048;SDS011;37084;55.228;36.450;2022-09-11T09:57:03;4.60;;;2.30;;
51048;SDS011;37084;55.228;36.450;2022-09-11T10:03:20;4.63;;;2.30;;
51048;SDS011;37084;55.228;36.450;2022-09-11T10:06:22;4.25;;;2.90;;
51048;SDS011;37084;55.228;36.450;2022-09-11T10:09:25;4.95;;;2.60;;
51048;SDS011;37084;55.228;36.450;2022-09-11T10:12:28;4.80;;;2.22;;
51048;SDS011;37084;55.228;36.450;2022-09-11T10:15:31;8.23;;;5.05;;
51048;SDS011;37084;55.228;36.450;2022-09-11T10:18:40;4.40;;;2.60;;
51048;SDS011;37084;55.228;36.450;2022-09-11T10:21:46;5.45;;;2.53;;
51048;SDS011;37084;55.228;36.450;2022-09-11T10:24:53;5.05;;;2.03;;
51048;SDS011;37084;55.228;36.450;2022-09-11T10:28:10;3.90;;;1.98;;
51048;SDS011;37084;55.228;36.450;2022-09-11T10:31:15;5.55;;;2.13;;
51048;SDS011;37084;55.228;36.450;2022-09-11T10:34:17;5.93;;;2.13;;
51048;SDS011;37084;55.228;36.450;2022-09-11T10:37:27;6.32;;;3.60;;
51048;SDS011;37084;55.228;36.450;2022-09-11T10:40:29;6.57;;;3.55;;
51048;SDS011;37084;55.228;36.450;2022-09-11T10:43:33;4.47;;;1.90;;
51048;SDS011;37084;55.228;36.450;2022-09-11T10:46:38;3.97;;;2.10;;
51048;SDS011;37084;55.228;36.450;2022-09-11T10:49:42;3.67;;;1.88;;
51048;SDS011;37084;55.228;36.450;2022-09-11T10:52:46;3.13;;;1.55;;
51048;SDS011;37084;55.228;36.450;2022-09-11T10:56:07;2.92;;;1.70;;
51048;SDS011;37084;55.228;36.450;2022-09-11T10:59:13;2.38;;;1.48;;
51048;SDS011;37084;55.228;36.450;2022-09-11T11:02:19;3.60;;;1.73;;
51048;SDS011;37084;55.228;36.450;2022-09-11T11:05:51;4.75;;;2.08;;
51048;SDS011;37084;55.228;36.450;2022-09-11T11:35:23;2.58;;;1.48;;
51048;SDS011;37084;55.228;36.450;2022-09-11T11:38:42;4.30;;;1.77;;
51048;SDS011;37084;55.228;36.450;2022-09-11T11:42:19;2.78;;;1.33;;
51048;SDS011;37084;55.228;36.450;2022-09-11T11:49:09;1.65;;;1.15;;
51048;SDS011;37084;55.228;36.450;2022-09-11T11:55:39;2.08;;;1.35;;
51048;SDS011;37084;55.228;36.450;2022-09-11T11:58:52;8.02;;;3.83;;
51048;SDS011;37084;55.228;36.450;2022-09-11T12:05:13;4.88;;;2.13;;
51048;SDS011;37084;55.228;36.450;2022-09-11T12:08:25;2.83;;;1.58;;
51048;SDS011;37084;55.228;36.450;2022-09-11T12:11:30;2.92;;;1.40;;
51048;SDS011;37084;55.228;36.450;2022-09-11T12:14:32;4.70;;;1.80;;
51048;SDS011;37084;55.228;36.450;2022-09-11T12:17:35;4.28;;;1.92;;
51048;SDS011;37084;55.228;36.450;2022-09-11T12:20:39;6.97;;;2.50;;
51048;SDS011;37084;55.228;36.450;2022-09-11T12:27:30;4.10;;;1.92;;
51048;SDS011;37084;55.228;36.450;2022-09-11T12:30:28;6.65;;;2.38;;
51048;SDS011;37084;55.228;36.450;2022-09-11T12:40:04;3.53;;;1.95;;
51048;SDS011;37084;55.228;36.450;2022-09-11T12:50:14;5.18;;;2.28;;
51048;SDS011;37084;55.228;36.450;2022-09-11T12:53:17;7.93;;;3.50;;
51048;SDS011;37084;55.228;36.450;2022-09-11T12:56:33;5.57;;;2.65;;
51048;SDS011;37084;55.228;36.450;2022-09-11T12:59:36;8.60;;;3.65;;
51048;SDS011;37084;55.228;36.450;2022-09-11T13:02:41;7.00;;;2.92;;
51048;SDS011;37084;55.228;36.450;2022-09-11T13:05:50;4.47;;;2.58;;
51048;SDS011;37084;55.228;36.450;2022-09-11T13:08:58;4.72;;;2.55;;
51048;SDS011;37084;55.228;36.450;2022-09-11T13:15:47;4.30;;;2.38;;
51048;SDS011;37084;55.228;36.450;2022-09-11T13:19:35;4.20;;;2.28;;
51048;SDS011;37084;55.228;36.450;2022-09-11T13:22:22;7.82;;;2.10;;
51048;SDS011;37084;55.228;36.450;2022-09-11T13:25:47;2.97;;;1.98;;
51048;SDS011;37084;55.228;36.450;2022-09-11T13:28:50;3.92;;;1.90;;
51048;SDS011;37084;55.228;36.450;2022-09-11T13:31:54;4.50;;;1.85;;
51048;SDS011;37084;55.228;36.450;2022-09-11T13:34:57;4.72;;;2.67;;
51048;SDS011;37084;55.228;36.450;2022-09-11T13:38:03;6.15;;;2.40;;
51048;SDS011;37084;55.228;36.450;2022-09-11T13:41:07;3.90;;;1.73;;
51048;SDS011;37084;55.228;36.450;2022-09-11T13:44:36;5.95;;;1.85;;
51048;SDS011;37084;55.228;36.450;2022-09-11T13:47:39;2.92;;;1.85;;
51048;SDS011;37084;55.228;36.450;2022-09-11T13:50:41;3.85;;;1.83;;
51048;SDS011;37084;55.228;36.450;2022-09-11T13:53:45;8.45;;;4.22;;
51048;SDS011;37084;55.228;36.450;2022-09-11T13:59:55;2.90;;;1.73;;
51048;SDS011;37084;55.228;36.450;2022-09-11T14:03:00;4.78;;;1.80;;
51048;SDS011;37084;55.228;36.450;2022-09-11T14:06:02;6.28;;;3.03;;
51048;SDS011;37084;55.228;36.450;2022-09-11T14:09:16;4.53;;;2.15;;
51048;SDS011;37084;55.228;36.450;2022-09-11T14:12:20;4.32;;;1.80;;
51048;SDS011;37084;55.228;36.450;2022-09-11T14:15:36;5.55;;;1.88;;
51048;SDS011;37084;55.228;36.450;2022-09-11T14:18:48;3.70;;;1.73;;
51048;SDS011;37084;55.228;36.450;2022-09-11T14:21:52;3.88;;;1.45;;
51048;SDS011;37084;55.228;36.450;2022-09-11T14:25:36;3.25;;;1.63;;
51048;SDS011;37084;55.228;36.450;2022-09-11T14:31:43;3.58;;;1.60;;
51048;SDS011;37084;55.228;36.450;2022-09-11T14:34:44;4.25;;;1.67;;
51048;SDS011;37084;55.228;36.450;2022-09-11T14:37:46;8.30;;;3.90;;
51048;SDS011;37084;55.228;36.450;2022-09-11T14:40:57;6.03;;;2.72;;
51048;SDS011;37084;55.228;36.450;2022-09-11T14:44:01;4.90;;;2.30;;
51048;SDS011;37084;55.228;36.450;2022-09-11T14:47:05;5.70;;;2.22;;
51048;SDS011;37084;55.228;36.450;2022-09-11T14:56:33;4.13;;;1.95;;
51048;SDS011;37084;55.228;36.450;2022-09-11T14:59:34;5.55;;;2.72;;
51048;SDS011;37084;55.228;36.450;2022-09-11T15:02:35;4.57;;;2.40;;
51048;SDS011;37084;55.228;36.450;2022-09-11T15:05:39;6.78;;;2.05;;
51048;SDS011;37084;55.228;36.450;2022-09-11T15:08:40;3.25;;;1.85;;
51048;SDS011;37084;55.228;36.450;2022-09-11T15:11:41;6.45;;;2.33;;
51048;SDS011;37084;55.228;36.450;2022-09-11T15:14:43;3.85;;;1.83;;
51048;SDS011;37084;55.228;36.450;2022-09-11T15:17:45;4.03;;;2.40;;
51048;SDS011;37084;55.228;36.450;2022-09-11T15:20:46;6.45;;;2.35;;
51048;SDS011;37084;55.228;36.450;2022-09-11T15:23:48;5.60;;;2.42;;
51048;SDS011;37084;55.228;36.450;2022-09-11T15:26:50;6.38;;;3.08;;
51048;SDS011;37084;55.228;36.450;2022-09-11T15:29:52;8.98;;;3.85;;
51048;SDS011;37084;55.228;36.450;2022-09-11T15:32:55;8.40;;;4.30;;
51048;SDS011;37084;55.228;36.450;2022-09-11T15:36:00;9.52;;;4.07;;
51048;SDS011;37084;55.228;36.450;2022-09-11T15:39:04;21.08;;;10.82;;
51048;SDS011;37084;55.228;36.450;2022-09-11T15:42:08;9.00;;;3.97;;
51048;SDS011;37084;55.228;36.450;2022-09-11T15:45:11;7.55;;;4.05;;
51048;SDS011;37084;55.228;36.450;2022-09-11T15:48:13;7.32;;;3.72;;
51048;SDS011;37084;55.228;36.450;2022-09-11T15:51:20;6.43;;;3.17;;
51048;SDS011;37084;55.228;36.450;2022-09-11T15:54:28;5.18;;;3.00;;
51048;SDS011;37084;55.228;36.450;2022-09-11T15:57:30;5.82;;;3.33;;
51048;SDS011;37084;55.228;36.450;2022-09-11T16:00:32;5.20;;;3.42;;
51048;SDS011;37084;55.228;36.450;2022-09-11T16:03:36;5.95;;;3.42;;
51048;SDS011;37084;55.228;36.450;2022-09-11T16:06:39;13.23;;;7.18;;
51048;SDS011;37084;55.228;36.450;2022-09-11T16:09:42;6.75;;;3.42;;
51048;SDS011;37084;55.228;36.450;2022-09-11T16:12:44;4.38;;;2.55;;
51048;SDS011;37084;55.228;36.450;2022-09-11T16:15:46;5.35;;;3.35;;
51048;SDS011;37084;55.228;36.450;2022-09-11T16:18:51;7.25;;;3.38;;
51048;SDS011;37084;55.228;36.450;2022-09-11T16:21:56;31.90;;;16.20;;
51048;SDS011;37084;55.228;36.450;2022-09-11T16:25:00;9.35;;;4.78;;
51048;SDS011;37084;55.228;36.450;2022-09-11T16:28:04;9.68;;;4.60;;
51048;SDS011;37084;55.228;36.450;2022-09-11T16:31:08;10.75;;;5.35;;
51048;SDS011;37084;55.228;36.450;2022-09-11T16:34:10;10.43;;;4.45;;
51048;SDS011;37084;55.228;36.450;2022-09-11T16:37:12;12.90;;;4.90;;
51048;SDS011;37084;55.228;36.450;2022-09-11T16:40:16;9.02;;;4.60;;
51048;SDS011;37084;55.228;36.450;2022-09-11T16:43:18;11.40;;;5.53;;
51048;SDS011;37084;55.228;36.450;2022-09-11T16:46:21;10.77;;;5.10;;
51048;SDS011;37084;55.228;36.450;2022-09-11T16:49:25;10.50;;;5.07;;
51048;SDS011;37084;55.228;36.450;2022-09-11T16:52:29;13.18;;;5.75;;
51048;SDS011;37084;55.228;36.450;2022-09-11T16:55:37;10.85;;;5.45;;
51048;SDS011;37084;55.228;36.450;2022-09-11T16:58:39;9.55;;;5.00;;
51048;SDS011;37084;55.228;36.450;2022-09-11T17:01:41;11.27;;;4.75;;
51048;SDS011;37084;55.228;36.450;2022-09-11T17:04:43;8.98;;;5.10;;
51048;SDS011;37084;55.228;36.450;2022-09-11T17:07:47;10.75;;;4.53;;
51048;SDS011;37084;55.228;36.450;2022-09-11T17:10:52;10.02;;;4.63;;
51048;SDS011;37084;55.228;36.450;2022-09-11T17:13:55;8.80;;;4.82;;
51048;SDS011;37084;55.228;36.450;2022-09-11T17:16:58;7.55;;;4.40;;
51048;SDS011;37084;55.228;36.450;2022-09-11T17:20:00;8.20;;;4.43;;
51048;SDS011;37084;55.228;36.450;2022-09-11T17:23:04;10.95;;;4.68;;
51048;SDS011;37084;55.228;36.450;2022-09-11T17:26:07;11.43;;;4.68;;
51048;SDS011;37084;55.228;36.450;2022-09-11T17:29:10;9.65;;;5.05;;
51048;SDS011;37084;55.228;36.450;2022-09-11T17:32:13;10.82;;;4.95;;
51048;SDS011;37084;55.228;36.450;2022-09-11T17:35:21;11.15;;;5.30;;
51048;SDS011;37084;55.228;36.450;2022-09-11T17:38:24;10.82;;;4.70;;
51048;SDS011;37084;55.228;36.450;2022-09-11T17:41:27;14.02;;;6.90;;
51048;SDS011;37084;55.228;36.450;2022-09-11T17:44:29;8.23;;;3.63;;
51048;SDS011;37084;55.228;36.450;2022-09-11T17:47:31;7.47;;;3.25;;
51048;SDS011;37084;55.228;36.450;2022-09-11T17:50:34;5.55;;;3.22;;
51048;SDS011;37084;55.228;36.450;2022-09-11T17:53:36;7.97;;;3.15;;
51048;SDS011;37084;55.228;36.450;2022-09-11T17:56:42;6.25;;;2.72;;
51048;SDS011;37084;55.228;36.450;2022-09-11T17:59:43;4.88;;;2.80;;
51048;SDS011;37084;55.228;36.450;2022-09-11T18:02:46;5.55;;;2.63;;
51048;SDS011;37084;55.228;36.450;2022-09-11T18:08:55;5.05;;;2.20;;
51048;SDS011;37084;55.228;36.450;2022-09-11T18:12:03;5.30;;;2.60;;
51048;SDS011;37084;55.228;36.450;2022-09-11T18:15:04;4.22;;;2.53;;
51048;SDS011;37084;55.228;36.450;2022-09-11T18:18:06;5.60;;;2.45;;
51048;SDS011;37084;55.228;36.450;2022-09-11T18:21:11;5.78;;;2.50;;
51048;SDS011;37084;55.228;36.450;2022-09-11T18:24:13;4.90;;;2.80;;
51048;SDS011;37084;55.228;36.450;2022-09-11T18:27:19;3.47;;;2.30;;
51048;SDS011;37084;55.228;36.450;2022-09-11T18:30:21;6.10;;;2.63;;
51048;SDS011;37084;55.228;36.450;2022-09-11T18:33:22;5.03;;;2.60;;
51048;SDS011;37084;55.228;36.450;2022-09-11T18:36:30;4.10;;;2.97;;
51048;SDS011;37084;55.228;36.450;2022-09-11T18:39:33;14.30;;;4.95;;
51048;SDS011;37084;55.228;36.450;2022-09-11T18:42:35;9.23;;;4.28;;
51048;SDS011;37084;55.228;36.450;2022-09-11T18:45:37;7.32;;;3.90;;
51048;SDS011;37084;55.228;36.450;2022-09-11T18:48:41;8.15;;;4.03;;
51048;SDS011;37084;55.228;36.450;2022-09-11T18:51:45;8.75;;;4.45;;
51048;SDS011;37084;55.228;36.450;2022-09-11T18:54:48;10.20;;;4.72;;
51048;SDS011;37084;55.228;36.450;2022-09-11T18:57:51;5.85;;;3.03;;
51048;SDS011;37084;55.228;36.450;2022-09-11T19:00:52;8.27;;;3.15;;
51048;SDS011;37084;55.228;36.450;2022-09-11T19:03:59;6.57;;;3.08;;
51048;SDS011;37084;55.228;36.450;2022-09-11T19:07:06;6.10;;;2.88;;
51048;SDS011;37084;55.228;36.450;2022-09-11T19:10:13;6.95;;;3.50;;
51048;SDS011;37084;55.228;36.450;2022-09-11T19:13:15;5.38;;;2.95;;
51048;SDS011;37084;55.228;36.450;2022-09-11T19:16:21;7.43;;;3.63;;
51048;SDS011;37084;55.228;36.450;2022-09-11T19:19:23;6.75;;;3.30;;
51048;SDS011;37084;55.228;36.450;2022-09-11T19:22:27;5.80;;;3.10;;
51048;SDS011;37084;55.228;36.450;2022-09-11T19:25:35;5.05;;;3.05;;
51048;SDS011;37084;55.228;36.450;2022-09-11T19:28:36;4.20;;;2.90;;
51048;SDS011;37084;55.228;36.450;2022-09-11T19:31:39;6.35;;;3.22;;
51048;SDS011;37084;55.228;36.450;2022-09-11T19:34:41;5.60;;;2.60;;
51048;SDS011;37084;55.228;36.450;2022-09-11T19:37:42;5.28;;;2.90;;
51048;SDS011;37084;55.228;36.450;2022-09-11T19:40:48;4.53;;;2.70;;
51048;SDS011;37084;55.228;36.450;2022-09-11T19:43:53;4.30;;;2.72;;
51048;SDS011;37084;55.228;36.450;2022-09-11T19:46:56;4.00;;;2.58;;
51048;SDS011;37084;55.228;36.450;2022-09-11T19:49:59;4.65;;;3.33;;
51048;SDS011;37084;55.228;36.450;2022-09-11T19:53:00;6.40;;;3.42;;
51048;SDS011;37084;55.228;36.450;2022-09-11T19:56:03;5.15;;;3.30;;
51048;SDS011;37084;55.228;36.450;2022-09-11T19:59:06;7.22;;;3.45;;
51048;SDS011;37084;55.228;36.450;2022-09-11T20:02:08;6.57;;;2.92;;
51048;SDS011;37084;55.228;36.450;2022-09-11T20:05:12;5.88;;;3.38;;
51048;SDS011;37084;55.228;36.450;2022-09-11T20:08:14;4.70;;;3.10;;
51048;SDS011;37084;55.228;36.450;2022-09-11T20:11:17;8.13;;;3.95;;
51048;SDS011;37084;55.228;36.450;2022-09-11T20:14:26;7.00;;;3.80;;
51048;SDS011;37084;55.228;36.450;2022-09-11T20:17:31;4.97;;;3.08;;
51048;SDS011;37084;55.228;36.450;2022-09-11T20:20:32;4.93;;;2.97;;